createdAt,value
2023-05-10T00:00:50.180Z,14.25
2023-05-10T00:03:57.594Z,9.00
2023-05-10T00:07:01.714Z,10.00
2023-05-10T00:10:07.305Z,9.25
2023-05-10T00:13:11.134Z,12.25
2023-05-10T00:16:14.858Z,12.00
2023-05-10T00:19:18.855Z,14.00
2023-05-10T00:22:24.068Z,8.25
2023-05-10T00:25:29.306Z,10.50
2023-05-10T00:28:32.691Z,10.75
2023-05-10T00:31:36.500Z,10.00
2023-05-10T00:34:40.124Z,11.75
2023-05-10T00:37:44.042Z,9.75
2023-05-10T00:40:49.521Z,2.75
2023-05-10T00:44:03.128Z,8.00
2023-05-10T00:47:06.983Z,13.00
2023-05-10T00:50:12.124Z,7.50
2023-05-10T00:53:16.408Z,9.50
2023-05-10T00:56:26.335Z,9.00
2023-05-10T00:59:30.754Z,8.50
2023-05-10T01:02:36.921Z,9.25
2023-05-10T01:05:40.561Z,8.00
2023-05-10T01:08:44.658Z,11.00
2023-05-10T01:11:51.366Z,10.50
2023-05-10T01:14:56.448Z,10.00
2023-05-10T01:18:00.430Z,10.00
2023-05-10T01:21:17.119Z,9.00
2023-05-10T01:24:50.233Z,11.50
2023-05-10T01:28:35.034Z,14.50
2023-05-10T01:32:05.185Z,14.00
2023-05-10T01:35:19.186Z,11.50
2023-05-10T01:38:29.855Z,13.50
2023-05-10T01:41:42.008Z,11.00
2023-05-10T01:44:55.651Z,6.00
2023-05-10T01:48:08.558Z,4.50
2023-05-10T01:51:14.489Z,4.50
2023-05-10T01:54:21.512Z,4.00
2023-05-10T01:57:28.926Z,5.50
2023-05-10T02:00:35.599Z,6.00
2023-05-10T02:03:42.250Z,7.25
2023-05-10T02:06:49.480Z,4.50
2023-05-10T02:09:53.930Z,6.00
2023-05-10T02:13:01.824Z,4.00
2023-05-10T02:16:07.598Z,5.00
2023-05-10T02:19:14.107Z,5.75
2023-05-10T02:22:20.993Z,3.75
2023-05-10T02:25:25.888Z,7.00
2023-05-10T02:28:30.482Z,6.00
2023-05-10T02:31:35.627Z,6.25
2023-05-10T02:34:40.653Z,6.00
2023-05-10T02:37:47.349Z,10.50
2023-05-10T02:40:51.386Z,7.75
2023-05-10T02:43:59.445Z,7.00
2023-05-10T02:47:03.225Z,6.00
2023-05-10T02:50:08.135Z,3.50
2023-05-10T02:53:21.029Z,5.00
2023-05-10T02:56:30.920Z,7.50
2023-05-10T02:59:34.747Z,8.00
2023-05-10T03:02:38.804Z,5.00
2023-05-10T03:05:42.700Z,5.00
2023-05-10T03:08:47.937Z,5.50
2023-05-10T03:12:02.870Z,6.00
2023-05-10T03:15:16.064Z,3.75
2023-05-10T03:18:25.765Z,5.00
2023-05-10T03:21:32.894Z,3.25
2023-05-10T03:24:41.566Z,7.00
2023-05-10T03:27:47.533Z,6.00
2023-05-10T03:30:52.250Z,7.00
2023-05-10T03:33:57.386Z,6.00
2023-05-10T03:37:03.563Z,6.50
2023-05-10T03:40:11.181Z,4.00
2023-05-10T03:43:18.079Z,5.50
2023-05-10T03:46:21.941Z,6.00
2023-05-10T03:49:25.558Z,4.50
2023-05-10T03:52:29.350Z,6.00
2023-05-10T03:55:35.561Z,5.00
2023-05-10T03:58:39.957Z,4.00
2023-05-10T04:01:45.593Z,5.00
2023-05-10T04:04:49.469Z,7.25
2023-05-10T04:07:52.958Z,8.00
2023-05-10T04:11:07.546Z,6.00
2023-05-10T04:14:11.207Z,5.50
2023-05-10T04:17:15.357Z,7.00
2023-05-10T04:20:19.334Z,7.25
2023-05-10T04:23:23.214Z,6.00
2023-05-10T04:26:28.077Z,6.25
2023-05-10T04:29:32.021Z,6.00
2023-05-10T04:32:35.732Z,8.00
2023-05-10T04:35:41.151Z,5.00
2023-05-10T04:38:45.227Z,5.25
2023-05-10T04:41:50.737Z,4.00
2023-05-10T04:44:54.286Z,6.00
2023-05-10T04:47:58.252Z,4.75
2023-05-10T04:51:02.240Z,4.00
2023-05-10T04:54:06.905Z,3.25
2023-05-10T04:57:12.242Z,3.00
2023-05-10T05:00:17.436Z,4.00
2023-05-10T05:03:21.235Z,3.00
2023-05-10T05:06:28.387Z,3.00
2023-05-10T05:09:33.108Z,3.50
2023-05-10T05:12:38.609Z,4.00
2023-05-10T05:15:42.099Z,0.00
2023-05-10T05:18:46.127Z,3.67
2023-05-10T05:21:49.642Z,3.00
2023-05-10T05:24:53.589Z,3.00
2023-05-10T05:27:58.536Z,3.00
2023-05-10T05:31:03.123Z,3.00
2023-05-10T05:34:06.620Z,3.33
2023-05-10T05:37:15.153Z,3.00
2023-05-10T05:40:18.800Z,3.00
2023-05-10T05:43:24.608Z,3.33
2023-05-10T05:46:28.342Z,4.00
2023-05-10T05:49:33.105Z,3.33
2023-05-10T05:52:37.203Z,3.00
2023-05-10T05:55:41.078Z,3.67
2023-05-10T05:58:46.767Z,3.00
2023-05-10T06:01:50.372Z,2.00
2023-05-10T06:04:54.459Z,3.00
2023-05-10T06:07:57.964Z,2.33
2023-05-10T06:11:02.026Z,3.67
2023-05-10T06:14:08.243Z,3.00
2023-05-10T06:17:11.974Z,4.33
2023-05-10T06:20:16.009Z,4.00
2023-05-10T06:23:19.803Z,4.00
2023-05-10T06:26:23.547Z,4.00
2023-05-10T06:29:28.746Z,2.00
2023-05-10T06:32:32.450Z,4.00
2023-05-10T06:35:36.317Z,2.67
2023-05-10T06:38:39.829Z,3.67
2023-05-10T06:41:43.932Z,4.00
2023-05-10T06:44:48.944Z,4.00
2023-05-10T06:47:53.194Z,3.00
2023-05-10T06:50:56.732Z,4.00
2023-05-10T06:54:00.523Z,2.33
2023-05-10T06:57:10.752Z,2.67
2023-05-10T07:00:23.004Z,1.33
2023-05-10T07:03:26.730Z,3.33
2023-05-10T07:06:33.780Z,3.00
2023-05-10T07:09:37.575Z,2.67
2023-05-10T07:12:42.716Z,2.33
2023-05-10T07:15:47.646Z,2.33
2023-05-10T07:18:52.027Z,2.00
2023-05-10T07:21:55.439Z,2.00
2023-05-10T07:24:59.630Z,2.00
2023-05-10T07:28:03.376Z,3.00
2023-05-10T07:31:08.965Z,2.00
2023-05-10T07:34:12.621Z,2.33
2023-05-10T07:37:17.215Z,2.00
2023-05-10T07:40:21.323Z,2.00
2023-05-10T07:43:25.506Z,1.00
2023-05-10T07:46:30.517Z,2.00
2023-05-10T07:49:34.580Z,2.33
2023-05-10T07:52:38.282Z,1.67
2023-05-10T07:55:42.539Z,2.00
2023-05-10T07:58:48.007Z,1.00
2023-05-10T08:01:53.735Z,2.00
2023-05-10T08:04:58.779Z,2.00
2023-05-10T08:08:02.890Z,2.00
2023-05-10T08:11:06.677Z,1.00
2023-05-10T08:14:14.412Z,1.00
2023-05-10T08:17:40.960Z,2.00
2023-05-10T08:20:44.825Z,4.00
2023-05-10T08:23:52.423Z,1.33
2023-05-10T08:26:59.040Z,3.00
2023-05-10T08:30:02.694Z,4.67
2023-05-10T08:33:09.924Z,4.00
2023-05-10T08:36:15.300Z,4.00
2023-05-10T08:39:29.833Z,3.00
2023-05-10T08:42:38.963Z,2.00
2023-05-10T08:45:44.583Z,2.33
2023-05-10T08:48:51.076Z,2.67
2023-05-10T08:51:57.511Z,2.67
2023-05-10T08:55:01.241Z,4.00
2023-05-10T08:58:06.090Z,3.00
2023-05-10T09:01:11.038Z,4.00
2023-05-10T09:04:16.701Z,3.00
2023-05-10T09:07:21.268Z,4.00
2023-05-10T09:10:28.351Z,2.00
2023-05-10T09:13:32.450Z,3.00
2023-05-10T09:16:36.758Z,3.00
2023-05-10T09:19:41.737Z,4.00
2023-05-10T09:22:46.054Z,4.67
2023-05-10T09:25:50.121Z,3.00
2023-05-10T09:28:57.241Z,3.67
2023-05-10T09:32:01.180Z,2.67
2023-05-10T09:35:11.164Z,2.00
2023-05-10T09:38:14.631Z,3.00
2023-05-10T09:41:19.913Z,4.00
2023-05-10T09:44:23.900Z,3.00
2023-05-10T09:47:28.074Z,3.67
2023-05-10T09:50:32.992Z,2.00
2023-05-10T09:53:37.543Z,2.00
2023-05-10T09:56:41.705Z,3.00
2023-05-10T09:59:46.319Z,2.33
2023-05-10T10:02:56.905Z,1.67
2023-05-10T10:06:03.096Z,3.33
2023-05-10T10:09:16.686Z,3.67
2023-05-10T10:12:23.832Z,3.00
2023-05-10T10:15:27.881Z,3.00
2023-05-10T10:18:33.402Z,3.00
2023-05-10T10:21:38.589Z,2.00
2023-05-10T10:24:42.874Z,3.00
2023-05-10T10:27:56.160Z,3.00
2023-05-10T10:31:06.774Z,3.00
2023-05-10T10:34:15.055Z,2.67
2023-05-10T10:37:20.780Z,2.00
2023-05-10T10:40:30.875Z,3.00
2023-05-10T10:43:36.650Z,2.00
2023-05-10T10:47:01.541Z,1.33
2023-05-10T10:50:07.408Z,1.00
2023-05-10T10:53:15.424Z,3.00
2023-05-10T10:56:25.355Z,4.00
2023-05-10T10:59:29.370Z,3.00
2023-05-10T11:02:45.386Z,3.33
2023-05-10T11:05:50.146Z,4.00
2023-05-10T11:08:58.073Z,0.33
2023-05-10T11:12:01.766Z,3.67
2023-05-10T11:15:11.474Z,3.00
2023-05-10T11:18:22.956Z,3.00
2023-05-10T11:21:27.211Z,3.00
2023-05-10T11:24:32.240Z,4.33
2023-05-10T11:27:39.874Z,5.00
2023-05-10T11:30:46.105Z,5.00
2023-05-10T11:33:54.360Z,4.00
2023-05-10T11:37:04.881Z,3.00
2023-05-10T11:40:11.256Z,5.00
2023-05-10T11:43:14.829Z,5.00
2023-05-10T11:46:21.718Z,3.00
2023-05-10T11:49:28.280Z,1.00
2023-05-10T11:52:39.587Z,3.00
2023-05-10T11:55:45.976Z,5.67
2023-05-10T11:58:56.655Z,3.00
2023-05-10T12:02:00.791Z,3.00
2023-05-10T12:05:06.344Z,4.00
2023-05-10T12:08:14.033Z,4.00
2023-05-10T12:11:20.422Z,5.00
2023-05-10T12:14:28.193Z,4.33
2023-05-10T12:17:35.233Z,5.00
2023-05-10T12:20:39.877Z,7.00
2023-05-10T12:23:44.100Z,4.00
2023-05-10T12:26:55.261Z,4.00
2023-05-10T12:30:01.517Z,5.00
2023-05-10T12:33:10.644Z,7.00
2023-05-10T12:36:16.613Z,6.00
2023-05-10T12:39:20.137Z,7.00
2023-05-10T12:42:26.158Z,5.67
2023-05-10T12:45:29.849Z,7.00
2023-05-10T12:48:34.995Z,4.00
2023-05-10T12:51:38.614Z,9.00
2023-05-10T12:54:42.455Z,5.00
2023-05-10T12:57:47.285Z,6.67
2023-05-10T13:00:52.737Z,5.67
2023-05-10T13:03:56.636Z,8.00
2023-05-10T13:07:00.752Z,4.67
2023-05-10T13:10:04.223Z,4.00
2023-05-10T13:13:09.665Z,7.33
2023-05-10T13:16:13.247Z,6.00
2023-05-10T13:19:18.616Z,7.00
2023-05-10T13:22:32.388Z,6.00
2023-05-10T13:25:36.582Z,4.33
2023-05-10T13:28:49.078Z,5.00
2023-05-10T13:31:53.553Z,4.67
2023-05-10T13:34:57.189Z,6.00
2023-05-10T13:38:01.110Z,5.00
2023-05-10T13:41:04.717Z,6.67
2023-05-10T13:44:10.220Z,5.33
2023-05-10T13:47:13.906Z,4.00
2023-05-10T13:50:18.030Z,4.67
2023-05-10T13:53:22.068Z,6.00
2023-05-10T13:56:26.487Z,5.33
2023-05-10T13:59:32.803Z,6.00
2023-05-10T14:02:36.663Z,6.00
2023-05-10T14:05:41.733Z,6.00
2023-05-10T14:08:47.823Z,6.00
2023-05-10T14:11:52.481Z,5.33
2023-05-10T14:14:59.668Z,5.00
2023-05-10T14:18:03.134Z,8.00
2023-05-10T14:21:07.167Z,5.67
2023-05-10T14:24:12.214Z,4.00
2023-05-10T14:27:20.307Z,5.00
2023-05-10T14:30:26.928Z,6.00
2023-05-10T14:33:30.895Z,5.00
2023-05-10T14:36:34.650Z,7.00
2023-05-10T14:39:39.050Z,4.67
2023-05-10T14:42:43.021Z,4.67
2023-05-10T14:45:48.882Z,7.00
2023-05-10T14:48:52.594Z,8.67
2023-05-10T14:51:56.573Z,3.67
2023-05-10T14:55:02.399Z,5.00
2023-05-10T14:58:06.708Z,6.00
2023-05-10T15:01:12.049Z,9.00
2023-05-10T15:04:17.558Z,6.00
2023-05-10T15:07:21.880Z,6.00
2023-05-10T15:10:26.304Z,6.00
2023-05-10T15:13:30.855Z,7.00
2023-05-10T15:16:36.452Z,5.67
2023-05-10T15:19:40.064Z,4.67
2023-05-10T15:22:46.544Z,7.67
2023-05-10T15:25:50.840Z,7.00
2023-05-10T15:28:55.293Z,6.00
2023-05-10T15:32:00.311Z,3.00
2023-05-10T15:35:05.896Z,6.00
2023-05-10T15:38:09.699Z,6.00
2023-05-10T15:41:15.595Z,11.67
2023-05-10T15:44:19.528Z,6.67
2023-05-10T15:47:25.494Z,9.00
2023-05-10T15:50:29.251Z,7.67
2023-05-10T15:53:35.561Z,6.00
2023-05-10T15:56:39.470Z,10.00
2023-05-10T15:59:43.473Z,4.00
2023-05-10T16:02:51.244Z,6.00
2023-05-10T16:05:58.323Z,9.00
2023-05-10T16:09:02.057Z,9.00
2023-05-10T16:12:06.028Z,9.00
2023-05-10T16:18:39.752Z,12.00
2023-05-10T16:21:44.046Z,8.33
2023-05-10T16:25:02.085Z,9.67
2023-05-10T16:28:21.257Z,8.00
2023-05-10T16:31:26.780Z,7.67
2023-05-10T16:34:31.911Z,8.67
2023-05-10T16:37:38.486Z,10.67
2023-05-10T16:40:42.117Z,12.33
2023-05-10T16:43:46.045Z,8.67
2023-05-10T16:46:49.807Z,9.00
2023-05-10T16:49:55.242Z,10.00
2023-05-10T16:52:58.970Z,16.25
2023-05-10T16:56:03.174Z,11.00
2023-05-10T16:59:07.132Z,9.33
2023-05-10T17:02:11.394Z,10.00
2023-05-10T17:05:16.835Z,9.00
2023-05-10T17:08:20.987Z,9.00
2023-05-10T17:11:24.648Z,9.00
2023-05-10T17:14:28.821Z,14.33
2023-05-10T17:17:41.822Z,9.00
2023-05-10T17:20:52.424Z,18.00
2023-05-10T17:23:56.114Z,25.50
2023-05-10T17:27:01.681Z,15.25
2023-05-10T17:30:05.990Z,13.75
2023-05-10T17:33:09.852Z,10.75
2023-05-10T17:36:16.054Z,11.75
2023-05-10T17:39:20.077Z,17.50
2023-05-10T17:42:23.628Z,18.50
2023-05-10T17:45:27.699Z,12.00
2023-05-10T17:48:31.267Z,15.50
2023-05-10T17:51:36.803Z,13.00
2023-05-10T17:54:43.963Z,12.75
2023-05-10T17:57:52.529Z,11.00
2023-05-10T18:00:57.791Z,15.25
2023-05-10T18:04:01.784Z,16.00
2023-05-10T18:07:06.738Z,0.00
2023-05-10T18:10:12.262Z,12.00
2023-05-10T18:13:15.819Z,10.00
2023-05-10T18:16:21.907Z,12.00
2023-05-10T18:19:26.359Z,13.75
2023-05-10T18:22:32.266Z,11.75
2023-05-10T18:25:36.291Z,18.25
2023-05-10T18:28:40.601Z,17.25
2023-05-10T18:31:44.315Z,12.00
2023-05-10T18:34:48.332Z,17.25
2023-05-10T18:37:53.872Z,15.00
2023-05-10T18:40:58.683Z,11.00
2023-05-10T18:44:02.373Z,14.33
2023-05-10T18:47:06.900Z,6.00
2023-05-10T18:50:11.299Z,15.00
2023-05-10T18:53:17.174Z,11.00
2023-05-10T18:56:22.123Z,9.00
2023-05-10T18:59:27.908Z,8.00
2023-05-10T19:02:31.637Z,13.25
2023-05-10T19:05:35.749Z,11.25
2023-05-10T19:08:41.926Z,7.00
2023-05-10T19:11:46.044Z,11.25
2023-05-10T19:14:49.497Z,9.00
2023-05-10T19:17:53.770Z,13.00
2023-05-10T19:20:57.545Z,8.75
2023-05-10T19:24:03.500Z,10.75
2023-05-10T19:27:07.632Z,13.00
2023-05-10T19:30:13.166Z,5.25
2023-05-10T19:33:17.192Z,16.50
2023-05-10T19:36:21.378Z,14.00
2023-05-10T19:39:28.673Z,14.00
2023-05-10T19:47:42.827Z,9.75
2023-05-10T19:50:46.509Z,12.00
2023-05-10T19:53:50.781Z,13.00
2023-05-10T19:56:55.833Z,11.00
2023-05-10T20:00:00.000Z,13.50
2023-05-10T20:03:07.016Z,10.00
2023-05-10T20:06:13.278Z,10.25
2023-05-10T20:09:16.903Z,12.75
2023-05-10T20:12:22.755Z,7.75
2023-05-10T20:15:26.411Z,10.50
2023-05-10T20:18:30.934Z,11.00
2023-05-10T20:21:34.760Z,7.00
2023-05-10T20:24:38.556Z,15.00
2023-05-10T20:27:43.571Z,8.25
2023-05-10T20:30:47.480Z,9.50
2023-05-10T20:33:52.152Z,10.25
2023-05-10T20:36:56.059Z,9.00
2023-05-10T20:39:59.980Z,10.00
2023-05-10T20:43:08.216Z,9.00
2023-05-10T20:46:12.664Z,10.00
2023-05-10T20:49:17.808Z,14.00
2023-05-10T20:52:23.356Z,10.75
2023-05-10T20:55:28.655Z,11.25
2023-05-10T20:58:33.833Z,5.75
2023-05-10T21:01:37.839Z,10.00
2023-05-10T21:04:41.586Z,14.00
2023-05-10T21:07:45.901Z,10.25
2023-05-10T21:10:49.438Z,10.00
2023-05-10T21:13:55.175Z,10.75
2023-05-10T21:17:07.375Z,9.75
2023-05-10T21:20:12.766Z,11.75
2023-05-10T21:23:16.594Z,11.50
2023-05-10T21:26:24.516Z,8.50
2023-05-10T21:29:29.474Z,10.00
2023-05-10T21:32:33.765Z,13.75
2023-05-10T21:35:39.351Z,15.50
2023-05-10T21:38:44.574Z,10.50
2023-05-10T21:41:48.024Z,12.00
2023-05-10T21:44:53.816Z,11.00
2023-05-10T21:47:57.301Z,12.25
2023-05-10T21:51:01.685Z,9.25
2023-05-10T21:54:05.519Z,10.50
2023-05-10T21:57:10.305Z,12.00
2023-05-10T22:00:16.660Z,10.25
2023-05-10T22:03:21.220Z,12.25
2023-05-10T22:06:24.739Z,9.00
2023-05-10T22:09:28.952Z,10.75
2023-05-10T22:12:32.516Z,9.50
2023-05-10T22:15:38.094Z,11.00
2023-05-10T22:18:41.960Z,11.75
2023-05-10T22:21:46.265Z,9.00
2023-05-10T22:24:49.818Z,11.50
2023-05-10T22:27:53.733Z,9.50
2023-05-10T22:30:58.765Z,9.25
2023-05-10T22:34:02.532Z,10.00
2023-05-10T22:37:06.058Z,9.25
2023-05-10T22:40:11.625Z,10.50
2023-05-10T22:43:15.270Z,10.00
2023-05-10T22:46:20.392Z,10.00
2023-05-10T22:49:23.932Z,11.75
2023-05-10T22:52:27.906Z,12.75
2023-05-10T22:55:31.773Z,11.25
2023-05-10T22:58:35.828Z,13.00
2023-05-10T23:01:40.954Z,10.00
2023-05-10T23:04:45.002Z,11.75
2023-05-10T23:07:53.615Z,10.00
2023-05-10T23:10:57.663Z,10.75
2023-05-10T23:14:01.222Z,11.25
2023-05-10T23:17:06.567Z,9.75
2023-05-10T23:20:11.163Z,9.75
2023-05-10T23:23:15.017Z,9.00
2023-05-10T23:26:18.485Z,13.25
2023-05-10T23:29:24.017Z,10.75
2023-05-10T23:32:28.986Z,8.75
2023-05-10T23:35:33.288Z,13.25
2023-05-10T23:38:36.768Z,12.50
2023-05-10T23:41:40.751Z,11.50
2023-05-10T23:44:44.385Z,10.75
2023-05-10T23:47:49.968Z,10.00
2023-05-10T23:50:55.600Z,4.00
2023-05-10T23:53:59.536Z,10.00
2023-05-10T23:57:03.313Z,9.50
